Time;durP1;ratioP1;P1;durP2;ratioP2;P2;SDS_P1;SDS_P2;PMS_P1;PMS_P2;Temp;Humidity;BMP_temperature;BMP_pressure;BME280_temperature;BME280_humidity;BME280_pressure;Samples;Min_cycle;Max_cycle;Signal;HPM_P1;HPM_P2
2021/05/09 00:00:10;;;;;;;;;;;21.20;57.70;;;;;;5104608;28;19904;-53
2021/05/09 00:02:36;;;;;;;;;;;21.20;57.70;;;;;;5104379;28;20431;-52
2021/05/09 00:05:02;;;;;;;;;;;21.20;57.70;;;;;;5103633;28;19915;-52
2021/05/09 00:07:27;;;;;;;;;;;21.20;57.60;;;;;;5104488;28;20207;-53
2021/05/09 00:09:53;;;;;;;;;;;21.20;57.60;;;;;;5104203;28;19908;-52
2021/05/09 00:12:19;;;;;;;;;;;21.20;57.60;;;;;;5104263;28;19955;-52
2021/05/09 00:14:45;;;;;;;;;;;21.20;57.60;;;;;;5104501;28;20264;-52
2021/05/09 00:17:14;;;;;;;;;;;21.20;57.50;;;;;;5104505;28;20512;-51
2021/05/09 00:19:40;;;;;;;;;;;21.20;57.50;;;;;;5103643;28;19922;-53
2021/05/09 00:22:06;;;;;;;;;;;21.20;57.50;;;;;;5103473;28;19919;-52
2021/05/09 00:24:32;;;;;;;;;;;21.20;57.50;;;;;;5104462;28;19946;-52
2021/05/09 00:26:58;;;;;;;;;;;21.20;57.50;;;;;;5103748;28;19911;-49
2021/05/09 00:29:24;;;;;;;;;;;21.10;57.50;;;;;;5104538;28;19911;-48
2021/05/09 00:31:50;;;;;;;;;;;21.20;57.60;;;;;;5103801;28;19958;-52
2021/05/09 00:34:15;;;;;;;;;;;21.20;57.50;;;;;;5103764;28;20230;-52
2021/05/09 00:36:41;;;;;;;;;;;21.10;57.50;;;;;;5103691;28;19908;-50
2021/05/09 00:39:07;;;;;;;;;;;21.10;57.50;;;;;;5107923;28;19967;-52
2021/05/09 00:41:33;;;;;;;;;;;21.10;57.60;;;;;;5120690;28;20280;-52
2021/05/09 00:43:59;;;;;;;;;;;21.10;57.50;;;;;;5102827;28;19912;-52
2021/05/09 00:46:25;;;;;;;;;;;21.10;57.50;;;;;;5103678;28;19979;-52
2021/05/09 00:48:51;;;;;;;;;;;21.10;57.60;;;;;;5103898;28;20720;-52
2021/05/09 00:51:17;;;;;;;;;;;21.10;57.60;;;;;;5103156;28;19908;-50
2021/05/09 00:53:43;;;;;;;;;;;21.10;57.70;;;;;;5103349;28;19912;-52
2021/05/09 00:56:13;;;;;;;;;;;21.10;57.70;;;;;;5102895;28;19927;-53
2021/05/09 00:58:41;;;;;;;;;;;21.10;57.70;;;;;;5103608;28;19930;-51
2021/05/09 01:01:07;;;;;;;;;;;21.10;57.70;;;;;;5103466;28;19947;-54
2021/05/09 01:03:32;;;;;;;;;;;21.00;57.60;;;;;;5103371;28;19923;-49
2021/05/09 01:05:58;;;;;;;;;;;21.00;57.60;;;;;;5102508;28;20006;-52
2021/05/09 01:08:24;;;;;;;;;;;21.00;57.60;;;;;;5085019;28;19904;-52
2021/05/09 01:10:50;;;;;;;;;;;21.00;57.70;;;;;;5102614;28;19939;-50
2021/05/09 01:13:16;;;;;;;;;;;21.00;57.70;;;;;;5103580;28;19920;-51
2021/05/09 01:15:42;;;;;;;;;;;21.00;57.60;;;;;;5084378;28;19919;-51
2021/05/09 01:18:08;;;;;;;;;;;21.00;57.60;;;;;;5103359;28;19926;-51
2021/05/09 01:20:35;;;;;;;;;;;21.00;57.60;;;;;;5102915;28;20624;-53
2021/05/09 01:23:01;;;;;;;;;;;21.00;57.70;;;;;;5103143;28;20050;-48
2021/05/09 01:25:27;;;;;;;;;;;20.90;57.60;;;;;;5102787;28;19908;-51
2021/05/09 01:27:53;;;;;;;;;;;20.90;57.60;;;;;;5084611;28;19957;-51
2021/05/09 01:30:19;;;;;;;;;;;20.90;58.20;;;;;;5084638;28;19912;-53
2021/05/09 01:32:45;;;;;;;;;;;20.90;57.70;;;;;;5102667;28;19980;-51
2021/05/09 01:35:11;;;;;;;;;;;20.90;57.70;;;;;;5102272;28;19912;-52
2021/05/09 01:37:37;;;;;;;;;;;20.90;57.70;;;;;;5102716;28;20237;-51
2021/05/09 01:40:04;;;;;;;;;;;20.90;57.70;;;;;;5102877;28;19908;-51
2021/05/09 01:42:30;;;;;;;;;;;20.90;58.00;;;;;;5102269;28;19912;-51
2021/05/09 01:44:56;;;;;;;;;;;20.90;58.10;;;;;;5102630;28;19908;-52
2021/05/09 01:47:22;;;;;;;;;;;20.80;58.10;;;;;;5102320;28;19940;-54
2021/05/09 01:49:48;;;;;;;;;;;20.80;58.20;;;;;;5103034;28;19987;-53
2021/05/09 01:52:14;;;;;;;;;;;20.80;58.30;;;;;;5101803;28;19930;-50
2021/05/09 01:54:40;;;;;;;;;;;20.80;58.40;;;;;;5102395;28;19908;-50
2021/05/09 01:57:06;;;;;;;;;;;20.80;58.20;;;;;;5102496;28;19915;-51
2021/05/09 01:59:32;;;;;;;;;;;20.80;58.40;;;;;;5102747;28;19930;-51
2021/05/09 02:01:58;;;;;;;;;;;20.80;58.60;;;;;;5102804;28;19911;-50
2021/05/09 02:04:23;;;;;;;;;;;20.80;58.70;;;;;;5101954;28;19915;-51
2021/05/09 02:06:49;;;;;;;;;;;20.80;58.70;;;;;;5101563;28;19908;-53
2021/05/09 02:09:15;;;;;;;;;;;20.80;58.60;;;;;;5102352;28;20332;-51
2021/05/09 02:11:41;;;;;;;;;;;20.70;58.70;;;;;;5101411;28;20019;-53
2021/05/09 02:14:08;;;;;;;;;;;20.70;58.50;;;;;;5102472;28;19912;-49
2021/05/09 02:16:34;;;;;;;;;;;20.70;58.50;;;;;;5102037;28;20361;-52
2021/05/09 02:19:01;;;;;;;;;;;20.70;58.60;;;;;;5102686;28;19911;-53
2021/05/09 02:21:26;;;;;;;;;;;20.70;58.70;;;;;;5102181;28;19914;-51
2021/05/09 02:23:52;;;;;;;;;;;20.70;58.70;;;;;;5101834;28;20035;-52
2021/05/09 02:26:18;;;;;;;;;;;20.60;58.60;;;;;;5101939;28;19908;-52
2021/05/09 02:28:44;;;;;;;;;;;20.60;58.70;;;;;;5102191;28;19912;-52
2021/05/09 02:31:10;;;;;;;;;;;20.60;58.80;;;;;;5102708;28;19908;-50
2021/05/09 02:33:36;;;;;;;;;;;20.60;58.60;;;;;;5101788;28;19908;-53
2021/05/09 02:36:02;;;;;;;;;;;20.60;58.70;;;;;;5101287;28;19912;-52
2021/05/09 02:38:28;;;;;;;;;;;20.60;58.30;;;;;;5102269;28;19908;-52
2021/05/09 02:40:53;;;;;;;;;;;20.60;58.40;;;;;;5102081;28;19939;-53
2021/05/09 02:43:19;;;;;;;;;;;20.60;58.00;;;;;;5101355;28;19931;-52
2021/05/09 02:45:45;;;;;;;;;;;20.50;57.80;;;;;;5101290;28;19904;-53
2021/05/09 02:48:11;;;;;;;;;;;20.50;58.00;;;;;;5098167;28;19903;-52
2021/05/09 02:50:37;;;;;;;;;;;20.50;57.80;;;;;;5102275;28;19916;-50
2021/05/09 02:53:03;;;;;;;;;;;20.50;57.70;;;;;;5101728;28;19912;-54
2021/05/09 02:55:29;;;;;;;;;;;20.50;58.10;;;;;;5101537;28;19903;-52
2021/05/09 02:57:55;;;;;;;;;;;20.50;57.80;;;;;;5101538;28;20293;-51
2021/05/09 03:00:21;;;;;;;;;;;20.50;57.50;;;;;;5101994;28;20006;-52
2021/05/09 03:02:47;;;;;;;;;;;20.40;57.50;;;;;;5102022;28;19913;-52
2021/05/09 03:05:13;;;;;;;;;;;20.40;57.50;;;;;;5101422;28;19912;-52
2021/05/09 03:07:39;;;;;;;;;;;20.40;57.50;;;;;;5083512;28;20395;-50
2021/05/09 03:10:05;;;;;;;;;;;20.40;57.50;;;;;;5101736;28;19961;-51
2021/05/09 03:12:31;;;;;;;;;;;20.40;57.60;;;;;;5090124;28;19920;-52
2021/05/09 03:14:57;;;;;;;;;;;20.40;57.60;;;;;;5093978;28;20339;-49
2021/05/09 03:17:22;;;;;;;;;;;20.30;57.60;;;;;;5095564;28;20198;-52
2021/05/09 03:19:48;;;;;;;;;;;20.30;57.60;;;;;;5092834;28;20415;-52
2021/05/09 03:22:14;;;;;;;;;;;20.30;57.60;;;;;;5093516;28;19951;-49
2021/05/09 03:24:40;;;;;;;;;;;20.30;58.30;;;;;;5091163;28;19912;-52
2021/05/09 03:27:06;;;;;;;;;;;20.30;57.70;;;;;;5096799;28;19908;-53
2021/05/09 03:29:32;;;;;;;;;;;20.30;57.80;;;;;;5100324;28;19950;-53
2021/05/09 03:31:58;;;;;;;;;;;20.30;57.70;;;;;;5093565;28;19908;-51
2021/05/09 03:34:24;;;;;;;;;;;20.20;57.70;;;;;;5093044;28;19988;-51
2021/05/09 03:36:50;;;;;;;;;;;20.20;57.80;;;;;;5099761;28;20406;-54
2021/05/09 03:39:16;;;;;;;;;;;20.20;57.80;;;;;;5097985;28;19908;-52
2021/05/09 03:41:41;;;;;;;;;;;20.20;57.80;;;;;;5097949;28;19908;-53
2021/05/09 03:44:07;;;;;;;;;;;20.20;57.90;;;;;;5088572;28;19916;-55
2021/05/09 03:46:33;;;;;;;;;;;20.20;57.90;;;;;;5094007;28;19979;-53
2021/05/09 03:48:59;;;;;;;;;;;20.20;57.90;;;;;;5088576;28;19997;-49
2021/05/09 03:51:25;;;;;;;;;;;20.10;58.00;;;;;;5092294;28;19934;-53
2021/05/09 03:53:51;;;;;;;;;;;20.10;57.90;;;;;;5093779;28;19914;-49
2021/05/09 03:56:17;;;;;;;;;;;20.10;57.90;;;;;;5096331;28;19908;-53
2021/05/09 03:58:43;;;;;;;;;;;20.10;58.00;;;;;;5094041;28;19947;-54
2021/05/09 04:01:09;;;;;;;;;;;20.10;58.00;;;;;;5092983;28;19911;-50
2021/05/09 04:03:34;;;;;;;;;;;20.10;58.00;;;;;;5087049;28;19916;-51
2021/05/09 04:06:00;;;;;;;;;;;20.00;58.00;;;;;;5097417;28;19912;-51
2021/05/09 04:08:27;;;;;;;;;;;20.00;58.00;;;;;;5094907;28;19908;-52
2021/05/09 04:10:53;;;;;;;;;;;20.00;58.10;;;;;;5094558;28;19908;-50
2021/05/09 04:13:19;;;;;;;;;;;20.00;58.20;;;;;;5083013;28;19924;-52
2021/05/09 04:15:45;;;;;;;;;;;20.00;58.10;;;;;;5103495;28;20440;-49
2021/05/09 04:18:11;;;;;;;;;;;20.00;58.20;;;;;;5101227;28;19946;-54
2021/05/09 04:20:37;;;;;;;;;;;20.00;58.20;;;;;;5104451;28;19943;-53
2021/05/09 04:23:07;;;;;;;;;;;19.90;58.30;;;;;;5105701;28;19972;-52
2021/05/09 04:25:33;;;;;;;;;;;19.90;58.20;;;;;;5107637;28;19908;-52
2021/05/09 04:27:58;;;;;;;;;;;19.90;58.30;;;;;;5103390;28;19961;-52
2021/05/09 04:30:24;;;;;;;;;;;19.90;58.30;;;;;;5104384;28;19911;-50
2021/05/09 04:33:16;;;;;;;;;;;19.90;58.30;;;;;;5104381;28;19915;-51
2021/05/09 04:35:43;;;;;;;;;;;19.80;58.40;;;;;;5104127;28;19904;-53
2021/05/09 04:38:10;;;;;;;;;;;19.80;58.40;;;;;;5103784;28;19991;-53
2021/05/09 04:40:36;;;;;;;;;;;19.80;58.40;;;;;;5103923;28;19915;-52
2021/05/09 04:43:06;;;;;;;;;;;19.80;58.40;;;;;;5086046;28;19922;-53
2021/05/09 04:45:33;;;;;;;;;;;19.80;58.50;;;;;;5103386;28;19943;-53
2021/05/09 04:47:59;;;;;;;;;;;19.80;58.50;;;;;;5103728;28;19907;-52
2021/05/09 04:50:25;;;;;;;;;;;19.70;58.40;;;;;;5107418;28;19915;-49
2021/05/09 04:52:50;;;;;;;;;;;19.80;58.50;;;;;;5104010;28;19908;-52
2021/05/09 04:55:16;;;;;;;;;;;19.70;58.60;;;;;;5103492;28;19908;-49
2021/05/09 04:57:42;;;;;;;;;;;19.70;58.60;;;;;;5103786;28;19904;-53
2021/05/09 05:00:08;;;;;;;;;;;19.70;58.70;;;;;;5109099;28;20424;-51
2021/05/09 05:02:34;;;;;;;;;;;19.70;58.70;;;;;;5105940;28;19911;-52
2021/05/09 05:05:00;;;;;;;;;;;19.70;58.60;;;;;;5103137;28;19967;-51
2021/05/09 05:07:26;;;;;;;;;;;19.60;58.70;;;;;;5106821;28;19976;-57
2021/05/09 05:09:52;;;;;;;;;;;19.60;58.70;;;;;;5108300;28;19907;-52
2021/05/09 05:12:18;;;;;;;;;;;19.60;58.70;;;;;;5096524;28;19920;-54
2021/05/09 05:14:44;;;;;;;;;;;19.60;58.70;;;;;;5103227;28;20331;-52
2021/05/09 05:17:10;;;;;;;;;;;19.60;58.80;;;;;;5102973;28;19911;-53
2021/05/09 05:19:36;;;;;;;;;;;19.60;58.70;;;;;;5084991;28;19915;-52
2021/05/09 05:22:03;;;;;;;;;;;19.50;58.70;;;;;;5103542;28;20002;-52
2021/05/09 05:24:29;;;;;;;;;;;19.50;58.70;;;;;;5098947;28;19908;-52
2021/05/09 05:26:55;;;;;;;;;;;19.50;58.80;;;;;;5107156;28;19961;-52
2021/05/09 05:29:21;;;;;;;;;;;19.50;58.80;;;;;;5103124;28;20288;-49
2021/05/09 05:31:49;;;;;;;;;;;19.50;58.80;;;;;;5103071;28;19904;-52
2021/05/09 05:34:14;;;;;;;;;;;19.40;58.80;;;;;;5101660;28;19904;-52
2021/05/09 05:36:40;;;;;;;;;;;19.50;58.80;;;;;;5102216;28;19923;-52
2021/05/09 05:39:06;;;;;;;;;;;19.40;58.90;;;;;;5103002;28;19908;-52
2021/05/09 05:41:32;;;;;;;;;;;19.40;59.00;;;;;;5101660;28;19904;-52
2021/05/09 05:43:58;;;;;;;;;;;19.40;59.00;;;;;;5102293;28;19931;-52
2021/05/09 05:46:27;;;;;;;;;;;19.40;59.00;;;;;;5102686;28;19908;-50
2021/05/09 05:48:53;;;;;;;;;;;19.40;59.10;;;;;;5102807;28;19955;-52
2021/05/09 05:51:19;;;;;;;;;;;19.40;59.20;;;;;;5103714;28;19930;-55
2021/05/09 05:53:45;;;;;;;;;;;19.30;59.10;;;;;;5105749;28;19971;-50
2021/05/09 05:56:11;;;;;;;;;;;19.30;59.20;;;;;;5102266;28;19912;-52
2021/05/09 05:58:37;;;;;;;;;;;19.30;59.20;;;;;;5102167;28;20041;-53
2021/05/09 06:01:02;;;;;;;;;;;19.30;59.20;;;;;;5102953;28;19943;-54
2021/05/09 06:03:29;;;;;;;;;;;19.30;59.10;;;;;;5102572;28;19916;-52
2021/05/09 06:05:57;;;;;;;;;;;19.30;59.30;;;;;;5102035;28;19946;-53
2021/05/09 06:08:23;;;;;;;;;;;19.30;59.30;;;;;;5102250;28;19908;-52
2021/05/09 06:10:49;;;;;;;;;;;19.20;59.30;;;;;;5102442;28;19931;-52
2021/05/09 06:13:15;;;;;;;;;;;19.20;59.20;;;;;;5102338;28;20021;-52
2021/05/09 06:15:41;;;;;;;;;;;19.20;59.30;;;;;;5101785;28;20420;-54
2021/05/09 06:18:07;;;;;;;;;;;19.20;59.30;;;;;;5102233;28;19943;-53
2021/05/09 06:20:33;;;;;;;;;;;19.20;59.40;;;;;;5102168;28;19904;-51
2021/05/09 06:22:59;;;;;;;;;;;19.10;59.40;;;;;;5102057;28;20454;-53
2021/05/09 06:25:25;;;;;;;;;;;19.10;59.30;;;;;;5101706;28;20356;-53
2021/05/09 06:27:53;;;;;;;;;;;19.10;59.40;;;;;;5102433;28;19912;-52
2021/05/09 06:30:19;;;;;;;;;;;19.10;59.60;;;;;;5098406;28;19908;-52
2021/05/09 06:32:45;;;;;;;;;;;19.10;59.60;;;;;;5102115;28;19912;-54
2021/05/09 06:35:11;;;;;;;;;;;19.10;59.50;;;;;;5101865;28;19918;-54
2021/05/09 06:37:37;;;;;;;;;;;19.00;59.30;;;;;;5101854;28;19915;-53
2021/05/09 06:40:04;;;;;;;;;;;19.10;59.50;;;;;;5101508;28;20331;-52
2021/05/09 06:42:30;;;;;;;;;;;19.10;59.60;;;;;;5102095;28;19912;-53
2021/05/09 06:45:00;;;;;;;;;;;19.00;59.60;;;;;;5101935;28;20272;-54
2021/05/09 06:47:26;;;;;;;;;;;19.00;59.50;;;;;;5101880;28;19983;-53
2021/05/09 06:49:52;;;;;;;;;;;19.00;59.70;;;;;;5101962;28;19908;-53
2021/05/09 06:52:18;;;;;;;;;;;19.00;59.70;;;;;;5103933;28;19979;-55
2021/05/09 06:54:44;;;;;;;;;;;19.00;59.60;;;;;;5105633;28;19941;-50
2021/05/09 06:57:09;;;;;;;;;;;18.90;59.70;;;;;;5105537;28;19908;-56
2021/05/09 06:59:35;;;;;;;;;;;18.90;59.70;;;;;;5106115;28;19948;-53
2021/05/09 07:02:01;;;;;;;;;;;18.90;59.80;;;;;;5106023;28;19908;-53
2021/05/09 07:04:27;;;;;;;;;;;18.90;59.80;;;;;;5105207;28;19907;-54
2021/05/09 07:06:53;;;;;;;;;;;18.90;59.70;;;;;;5105560;28;19916;-52
2021/05/09 07:09:19;;;;;;;;;;;18.90;59.80;;;;;;5105688;28;19919;-54
2021/05/09 07:11:45;;;;;;;;;;;18.80;59.80;;;;;;5105587;28;20061;-51
2021/05/09 07:14:11;;;;;;;;;;;18.80;59.80;;;;;;5105011;28;19939;-54
2021/05/09 07:16:36;;;;;;;;;;;18.80;59.90;;;;;;5104942;28;19914;-52
2021/05/09 07:19:05;;;;;;;;;;;18.80;59.80;;;;;;5106098;28;19904;-53
2021/05/09 07:21:35;;;;;;;;;;;18.80;59.90;;;;;;5087711;28;19939;-53
2021/05/09 07:24:01;;;;;;;;;;;18.80;59.90;;;;;;5105187;28;20376;-52
2021/05/09 07:26:27;;;;;;;;;;;18.80;60.70;;;;;;5105152;28;19904;-55
2021/05/09 07:28:53;;;;;;;;;;;18.80;60.00;;;;;;5105509;28;19915;-53
2021/05/09 07:31:19;;;;;;;;;;;18.70;60.00;;;;;;5105678;28;19908;-54
2021/05/09 07:33:45;;;;;;;;;;;18.70;60.10;;;;;;5104492;28;19950;-55
2021/05/09 07:36:11;;;;;;;;;;;18.70;60.20;;;;;;5104803;28;20002;-51
2021/05/09 07:38:37;;;;;;;;;;;18.70;60.20;;;;;;5101235;28;19981;-52
2021/05/09 07:41:03;;;;;;;;;;;18.70;60.30;;;;;;5104893;28;19911;-54
2021/05/09 07:43:29;;;;;;;;;;;18.60;60.20;;;;;;5104500;28;19915;-53
2021/05/09 07:45:55;;;;;;;;;;;18.60;60.20;;;;;;5104598;28;20598;-53
2021/05/09 07:48:21;;;;;;;;;;;18.60;60.20;;;;;;5104604;28;19908;-53
2021/05/09 07:50:47;;;;;;;;;;;18.60;60.30;;;;;;5105262;28;19904;-52
2021/05/09 07:53:14;;;;;;;;;;;18.60;60.30;;;;;;5104599;28;19919;-54
2021/05/09 07:55:40;;;;;;;;;;;18.60;60.30;;;;;;5104392;28;19939;-53
2021/05/09 07:58:19;;;;;;;;;;;18.60;60.40;;;;;;5104007;28;19907;-53
2021/05/09 08:00:45;;;;;;;;;;;18.60;60.40;;;;;;5105291;28;19904;-52
2021/05/09 08:03:11;;;;;;;;;;;18.50;60.40;;;;;;5103141;28;20584;-53
2021/05/09 08:05:37;;;;;;;;;;;18.50;60.50;;;;;;5103585;28;19938;-54
2021/05/09 08:08:03;;;;;;;;;;;18.50;60.50;;;;;;5086520;28;19908;-52
2021/05/09 08:10:31;;;;;;;;;;;18.50;60.40;;;;;;5104834;28;19970;-53
2021/05/09 08:12:57;;;;;;;;;;;18.50;60.60;;;;;;5104390;28;20022;-54
2021/05/09 08:15:23;;;;;;;;;;;18.50;60.60;;;;;;5103652;28;19958;-53
2021/05/09 08:17:49;;;;;;;;;;;18.50;60.60;;;;;;5104311;28;19908;-53
2021/05/09 08:20:15;;;;;;;;;;;18.50;60.70;;;;;;5104244;28;19947;-54
2021/05/09 08:22:41;;;;;;;;;;;18.40;60.60;;;;;;5104109;28;20182;-54
2021/05/09 08:25:07;;;;;;;;;;;18.40;60.70;;;;;;5103401;28;19979;-53
2021/05/09 08:27:34;;;;;;;;;;;18.40;60.70;;;;;;5104239;28;19908;-53
2021/05/09 08:30:00;;;;;;;;;;;18.40;60.90;;;;;;5104082;28;19904;-53
2021/05/09 08:32:27;;;;;;;;;;;18.40;60.70;;;;;;5086311;28;19912;-49
2021/05/09 08:34:54;;;;;;;;;;;18.40;60.70;;;;;;5103897;28;19930;-52
2021/05/09 08:37:19;;;;;;;;;;;18.30;60.70;;;;;;5104028;28;19968;-53
2021/05/09 08:39:45;;;;;;;;;;;18.40;60.80;;;;;;5103673;28;19904;-53
2021/05/09 08:42:15;;;;;;;;;;;18.30;60.80;;;;;;5103854;28;20533;-51
2021/05/09 08:44:44;;;;;;;;;;;18.30;60.80;;;;;;5103706;28;20595;-53
2021/05/09 08:47:10;;;;;;;;;;;18.30;60.90;;;;;;5103417;28;19904;-56
2021/05/09 08:49:37;;;;;;;;;;;18.30;60.90;;;;;;5103997;28;19995;-55
2021/05/09 08:52:03;;;;;;;;;;;18.30;60.90;;;;;;5103914;28;19954;-54
2021/05/09 08:54:29;;;;;;;;;;;18.20;60.90;;;;;;5081030;28;19904;-53
2021/05/09 08:56:55;;;;;;;;;;;18.20;60.90;;;;;;5103420;28;19915;-54
2021/05/09 08:59:21;;;;;;;;;;;18.20;60.90;;;;;;5103309;28;19908;-54
2021/05/09 09:01:47;;;;;;;;;;;18.20;60.90;;;;;;5103430;28;19947;-54
2021/05/09 09:04:13;;;;;;;;;;;18.20;60.90;;;;;;5085297;28;20384;-53
2021/05/09 09:06:39;;;;;;;;;;;18.20;61.00;;;;;;5102604;28;19904;-52
2021/05/09 09:09:05;;;;;;;;;;;18.20;61.00;;;;;;5103531;28;19950;-53
2021/05/09 09:11:31;;;;;;;;;;;18.20;61.10;;;;;;5103224;28;19912;-53
2021/05/09 09:14:12;;;;;;;;;;;18.10;61.10;;;;;;5103020;28;20036;-51
2021/05/09 09:16:38;;;;;;;;;;;18.10;61.10;;;;;;5098083;28;19929;-54
2021/05/09 09:19:11;;;;;;;;;;;18.10;61.10;;;;;;5103436;28;19943;-54
2021/05/09 09:21:38;;;;;;;;;;;18.10;61.20;;;;;;5103133;28;19915;-54
2021/05/09 09:24:07;;;;;;;;;;;18.10;62.00;;;;;;5102428;28;20017;-53
2021/05/09 09:26:42;;;;;;;;;;;18.10;61.20;;;;;;5102493;28;19987;-52
2021/05/09 09:29:25;;;;;;;;;;;18.10;61.20;;;;;;5084637;28;19915;-54
2021/05/09 09:31:52;;;;;;;;;;;18.10;61.30;;;;;;5100626;28;19912;-54
2021/05/09 09:34:18;;;;;;;;;;;18.00;61.20;;;;;;5103056;28;19935;-54
2021/05/09 09:36:44;;;;;;;;;;;18.00;61.30;;;;;;5102454;28;19912;-50
2021/05/09 09:39:10;;;;;;;;;;;18.00;61.30;;;;;;5103136;28;19911;-52
2021/05/09 09:41:43;;;;;;;;;;;18.00;61.40;;;;;;5103161;28;20008;-54
2021/05/09 09:44:11;;;;;;;;;;;18.00;61.40;;;;;;5083704;28;19912;-54
2021/05/09 09:46:37;;;;;;;;;;;18.00;61.30;;;;;;5102388;28;19908;-52
2021/05/09 09:49:04;;;;;;;;;;;18.00;61.40;;;;;;5102916;28;19914;-53
2021/05/09 09:51:30;;;;;;;;;;;17.90;61.40;;;;;;5102817;28;19911;-53
2021/05/09 09:53:57;;;;;;;;;;;17.90;61.40;;;;;;5084106;28;20041;-53
2021/05/09 09:56:23;;;;;;;;;;;17.90;61.40;;;;;;5083798;28;19908;-52
2021/05/09 09:58:49;;;;;;;;;;;17.90;61.50;;;;;;5098854;28;19915;-52
2021/05/09 10:01:19;;;;;;;;;;;17.90;61.50;;;;;;5102270;28;20355;-55
2021/05/09 10:03:46;;;;;;;;;;;17.90;61.50;;;;;;5101878;28;20881;-55
2021/05/09 10:06:12;;;;;;;;;;;17.90;61.50;;;;;;5100940;28;19946;-52
2021/05/09 10:08:38;;;;;;;;;;;17.90;61.50;;;;;;5102915;28;19908;-54
2021/05/09 10:11:04;;;;;;;;;;;17.90;61.50;;;;;;5102082;28;20389;-53
2021/05/09 10:13:30;;;;;;;;;;;17.80;62.30;;;;;;5101652;28;20006;-54
2021/05/09 10:15:56;;;;;;;;;;;17.80;61.60;;;;;;5102062;28;19907;-53
2021/05/09 10:18:23;;;;;;;;;;;17.80;61.60;;;;;;5102248;28;19908;-55
2021/05/09 10:20:49;;;;;;;;;;;17.80;61.60;;;;;;5102594;28;19908;-55
2021/05/09 10:23:17;;;;;;;;;;;17.80;61.70;;;;;;5102223;28;19912;-52
2021/05/09 10:25:44;;;;;;;;;;;17.80;61.70;;;;;;5101630;28;19908;-53
2021/05/09 10:28:11;;;;;;;;;;;17.80;61.70;;;;;;5101771;28;19942;-53
2021/05/09 10:30:46;;;;;;;;;;;17.80;61.80;;;;;;5102162;28;19908;-53
2021/05/09 10:33:31;;;;;;;;;;;17.80;61.70;;;;;;5102095;28;19950;-51
2021/05/09 10:35:56;;;;;;;;;;;17.70;61.70;;;;;;5101882;28;19914;-54
2021/05/09 10:38:22;;;;;;;;;;;17.70;61.80;;;;;;5101654;28;19991;-54
2021/05/09 10:40:48;;;;;;;;;;;17.70;61.80;;;;;;5083970;28;19908;-54
2021/05/09 10:43:16;;;;;;;;;;;17.70;61.80;;;;;;5101801;28;19923;-52
2021/05/09 10:45:42;;;;;;;;;;;17.70;61.80;;;;;;5101588;28;19995;-54
2021/05/09 10:48:14;;;;;;;;;;;17.70;61.90;;;;;;5102079;28;19908;-52
2021/05/09 10:50:44;;;;;;;;;;;17.70;61.80;;;;;;5098647;28;19908;-53
2021/05/09 10:53:10;;;;;;;;;;;17.70;61.90;;;;;;5102089;28;19905;-54
2021/05/09 10:55:36;;;;;;;;;;;17.60;61.80;;;;;;5097717;28;19912;-53
2021/05/09 10:58:02;;;;;;;;;;;17.60;61.90;;;;;;5101294;28;19915;-54
2021/05/09 11:00:28;;;;;;;;;;;17.60;61.90;;;;;;5101738;28;19908;-53
2021/05/09 11:02:54;;;;;;;;;;;17.60;61.90;;;;;;5083265;28;19916;-53
2021/05/09 11:05:20;;;;;;;;;;;17.60;62.00;;;;;;5100942;28;19904;-53
2021/05/09 11:07:47;;;;;;;;;;;17.60;62.00;;;;;;5101243;28;19948;-54
2021/05/09 11:10:31;;;;;;;;;;;17.60;62.10;;;;;;5101910;28;19904;-53
2021/05/09 11:13:06;;;;;;;;;;;17.60;62.10;;;;;;5086569;28;19955;-51
2021/05/09 11:15:32;;;;;;;;;;;17.50;62.00;;;;;;5080177;28;19905;-53
2021/05/09 11:17:58;;;;;;;;;;;17.50;62.00;;;;;;5063344;28;19962;-55
2021/05/09 11:20:24;;;;;;;;;;;17.50;62.00;;;;;;5063883;28;19915;-53
2021/05/09 11:22:59;;;;;;;;;;;17.50;62.10;;;;;;5063199;28;20038;-53
2021/05/09 11:25:31;;;;;;;;;;;17.50;62.10;;;;;;5080871;28;20619;-54
2021/05/09 11:27:57;;;;;;;;;;;17.50;62.10;;;;;;5081348;28;19905;-54
2021/05/09 11:30:33;;;;;;;;;;;17.50;62.10;;;;;;5081638;28;20306;-54
2021/05/09 11:32:59;;;;;;;;;;;17.50;62.10;;;;;;5081678;28;19904;-52
2021/05/09 11:35:34;;;;;;;;;;;17.50;62.20;;;;;;5063475;28;19908;-52
2021/05/09 11:38:00;;;;;;;;;;;17.40;62.90;;;;;;5082638;28;19909;-53
2021/05/09 11:40:26;;;;;;;;;;;17.40;62.20;;;;;;5085234;28;19993;-54
2021/05/09 11:42:52;;;;;;;;;;;17.40;62.30;;;;;;5085175;28;19919;-54
2021/05/09 11:45:23;;;;;;;;;;;17.40;62.30;;;;;;5084606;28;19947;-53
2021/05/09 11:47:49;;;;;;;;;;;17.40;62.30;;;;;;5084590;28;19958;-55
2021/05/09 11:50:17;;;;;;;;;;;17.40;62.30;;;;;;5084911;28;20691;-53
2021/05/09 11:52:44;;;;;;;;;;;17.40;62.20;;;;;;5066843;28;19976;-53
2021/05/09 11:55:14;;;;;;;;;;;17.40;62.30;;;;;;5084503;28;19908;-53
2021/05/09 11:57:40;;;;;;;;;;;17.40;62.30;;;;;;5084358;28;20790;-52
2021/05/09 12:00:07;;;;;;;;;;;17.40;62.30;;;;;;5084748;28;19908;-54
2021/05/09 12:02:45;;;;;;;;;;;17.30;62.30;;;;;;5084589;28;19918;-55
2021/05/09 12:05:12;;;;;;;;;;;17.30;62.30;;;;;;5084184;28;19955;-53
2021/05/09 12:07:41;;;;;;;;;;;17.30;62.30;;;;;;5084324;28;19951;-56
2021/05/09 12:10:07;;;;;;;;;;;17.30;62.30;;;;;;5084230;28;20414;-54
2021/05/09 12:12:34;;;;;;;;;;;17.30;62.40;;;;;;5078345;28;19920;-50
2021/05/09 12:15:13;;;;;;;;;;;17.30;62.30;;;;;;5104544;28;19904;-51
2021/05/09 12:17:46;;;;;;;;;;;17.30;62.40;;;;;;5101136;28;20007;-54
2021/05/09 12:20:22;;;;;;;;;;;17.30;62.40;;;;;;5105115;28;19939;-53
2021/05/09 12:22:48;;;;;;;;;;;17.20;62.30;;;;;;5104588;28;19912;-53
2021/05/09 12:25:14;;;;;;;;;;;17.20;62.30;;;;;;5104090;28;19966;-54
2021/05/09 12:27:46;;;;;;;;;;;17.20;62.40;;;;;;5104473;28;19908;-54
2021/05/09 12:30:16;;;;;;;;;;;17.20;62.30;;;;;;5104650;28;19904;-54
2021/05/09 12:32:42;;;;;;;;;;;17.20;62.30;;;;;;5104371;28;19915;-54
2021/05/09 12:35:12;;;;;;;;;;;17.20;62.40;;;;;;5103973;28;19908;-52
2021/05/09 12:37:46;;;;;;;;;;;17.20;62.40;;;;;;5100163;28;19908;-53
2021/05/09 12:40:15;;;;;;;;;;;17.20;62.40;;;;;;5104356;28;19904;-54
2021/05/09 12:42:54;;;;;;;;;;;17.20;62.40;;;;;;5104421;28;19951;-53
2021/05/09 12:45:29;;;;;;;;;;;17.20;62.40;;;;;;5103761;28;19904;-55
2021/05/09 12:48:11;;;;;;;;;;;17.20;62.40;;;;;;5103653;28;20000;-52
2021/05/09 12:50:52;;;;;;;;;;;17.20;62.50;;;;;;5103545;28;20003;-53
2021/05/09 12:53:37;;;;;;;;;;;17.20;62.50;;;;;;5103603;28;19915;-53
2021/05/09 12:56:22;;;;;;;;;;;17.20;62.50;;;;;;5103690;28;19926;-53
2021/05/09 12:59:00;;;;;;;;;;;17.20;62.50;;;;;;5100461;28;19908;-52
2021/05/09 13:01:27;;;;;;;;;;;17.20;62.40;;;;;;5103478;28;19947;-50
2021/05/09 13:03:53;;;;;;;;;;;17.20;62.50;;;;;;5103279;28;19934;-55
2021/05/09 13:06:18;;;;;;;;;;;17.20;62.50;;;;;;5103513;28;19908;-54
2021/05/09 13:08:44;;;;;;;;;;;17.20;62.50;;;;;;5103553;28;19904;-52
2021/05/09 13:11:10;;;;;;;;;;;17.20;62.60;;;;;;5103586;28;19977;-53
2021/05/09 13:13:36;;;;;;;;;;;17.20;62.50;;;;;;5103235;28;19922;-54
2021/05/09 13:16:02;;;;;;;;;;;17.20;62.50;;;;;;5102582;28;19908;-52
2021/05/09 13:18:28;;;;;;;;;;;17.20;62.40;;;;;;5103272;28;19908;-53
2021/05/09 13:20:54;;;;;;;;;;;17.20;62.40;;;;;;5103630;28;19919;-54
2021/05/09 13:23:20;;;;;;;;;;;17.30;62.40;;;;;;5103048;28;19916;-52
2021/05/09 13:25:50;;;;;;;;;;;17.30;62.30;;;;;;5102816;28;19931;-55
2021/05/09 13:28:16;;;;;;;;;;;17.30;62.40;;;;;;5103008;28;19908;-53
2021/05/09 13:30:42;;;;;;;;;;;17.30;62.40;;;;;;5103290;28;19934;-53
2021/05/09 13:33:08;;;;;;;;;;;17.30;62.40;;;;;;5103163;28;19915;-52
2021/05/09 13:35:33;;;;;;;;;;;17.30;62.40;;;;;;5102684;28;20274;-53
2021/05/09 13:37:59;;;;;;;;;;;17.40;62.40;;;;;;5102680;28;19943;-54
2021/05/09 13:40:26;;;;;;;;;;;17.40;62.30;;;;;;5103409;28;19919;-53
2021/05/09 13:42:51;;;;;;;;;;;17.40;62.30;;;;;;5102869;28;19934;-50
2021/05/09 13:45:17;;;;;;;;;;;17.40;62.30;;;;;;5101678;28;19908;-54
2021/05/09 13:47:43;;;;;;;;;;;17.40;62.30;;;;;;5102748;28;19930;-52
2021/05/09 13:50:09;;;;;;;;;;;17.40;62.30;;;;;;5102990;28;19904;-54
2021/05/09 13:52:36;;;;;;;;;;;17.40;62.30;;;;;;5102695;28;19925;-53
2021/05/09 13:55:02;;;;;;;;;;;17.40;62.30;;;;;;5103237;28;20375;-54
2021/05/09 13:57:28;;;;;;;;;;;17.40;62.20;;;;;;5102305;28;19950;-51
2021/05/09 13:59:54;;;;;;;;;;;17.40;62.30;;;;;;5102627;28;19931;-50
2021/05/09 14:02:20;;;;;;;;;;;17.50;62.40;;;;;;5101607;28;19951;-55
2021/05/09 14:04:46;;;;;;;;;;;17.50;62.40;;;;;;5102603;28;19912;-54
2021/05/09 14:07:12;;;;;;;;;;;17.50;62.40;;;;;;5101915;28;19908;-50
2021/05/09 14:09:38;;;;;;;;;;;17.50;62.40;;;;;;5084273;28;20298;-55
2021/05/09 14:12:06;;;;;;;;;;;17.50;62.40;;;;;;5102670;28;19915;-52
2021/05/09 14:14:39;;;;;;;;;;;17.60;62.40;;;;;;5102552;28;19916;-53